Time;durP1;ratioP1;P1;durP2;ratioP2;P2;SDS_P1;SDS_P2;PMS_P1;PMS_P2;Temp;Humidity;BMP_temperature;BMP_pressure;BME280_temperature;BME280_humidity;BME280_pressure;Samples;Min_cycle;Max_cycle;Signal;HPM_P1;HPM_P2
2021/10/01 00:01:19;;;;;;;11.77;5.50;;;12.30;99.90;;;;;;4841763;29;20488;-83
2021/10/01 00:03:45;;;;;;;9.48;4.10;;;12.30;99.90;;;;;;4823568;29;20026;-82
2021/10/01 00:06:10;;;;;;;12.27;4.15;;;12.30;99.90;;;;;;4841590;29;20448;-81
2021/10/01 00:08:36;;;;;;;8.73;3.38;;;12.30;99.90;;;;;;4841576;29;20499;-85
2021/10/01 00:11:02;;;;;;;8.43;3.05;;;12.30;99.90;;;;;;4841202;29;20033;-82
2021/10/01 00:13:28;;;;;;;7.75;3.22;;;12.20;99.90;;;;;;4841377;29;20063;-82
2021/10/01 00:15:54;;;;;;;6.00;2.65;;;12.20;99.90;;;;;;4841139;29;20052;-82
2021/10/01 00:18:20;;;;;;;6.43;2.60;;;12.30;99.90;;;;;;4841178;29;20026;-82
2021/10/01 00:20:46;;;;;;;7.82;2.92;;;12.20;99.90;;;;;;4841208;29;20062;-86
2021/10/01 00:23:12;;;;;;;6.65;2.60;;;12.20;99.90;;;;;;4841131;29;20049;-82
2021/10/01 00:25:37;;;;;;;8.35;2.45;;;12.20;99.90;;;;;;4840773;29;20038;-82
2021/10/01 00:28:03;;;;;;;6.53;2.20;;;12.20;99.90;;;;;;4838012;29;20030;-82
2021/10/01 00:30:29;;;;;;;3.85;1.70;;;12.20;99.90;;;;;;4841439;29;20026;-82
2021/10/01 00:32:55;;;;;;;10.50;2.38;;;12.20;99.90;;;;;;4834947;29;20067;-82
2021/10/01 00:35:21;;;;;;;8.23;2.20;;;12.10;99.90;;;;;;4834452;29;20108;-82
2021/10/01 00:37:47;;;;;;;5.20;1.90;;;12.20;99.90;;;;;;4841636;29;20034;-82
2021/10/01 00:40:13;;;;;;;9.20;2.38;;;12.10;99.90;;;;;;4839364;29;20022;-82
2021/10/01 00:42:39;;;;;;;7.47;2.17;;;12.20;99.90;;;;;;4840873;29;20040;-82
2021/10/01 00:45:06;;;;;;;5.03;1.40;;;12.10;99.90;;;;;;4839282;29;20022;-81
2021/10/01 00:47:32;;;;;;;11.23;1.77;;;12.20;99.90;;;;;;4840795;29;20032;-82
2021/10/01 00:49:58;;;;;;;7.72;2.08;;;12.20;99.90;;;;;;4840227;29;20510;-81
2021/10/01 00:52:24;;;;;;;7.10;1.58;;;12.10;99.90;;;;;;4840615;29;20034;-82
2021/10/01 00:54:52;;;;;;;8.70;1.67;;;12.10;99.90;;;;;;4821605;29;20098;-82
2021/10/01 00:57:18;;;;;;;5.35;1.67;;;12.20;99.90;;;;;;4840253;29;20022;-82
2021/10/01 00:59:44;;;;;;;4.75;1.50;;;12.10;99.90;;;;;;4821881;29;20125;-82
2021/10/01 01:02:10;;;;;;;8.40;1.60;;;12.10;99.90;;;;;;4839907;29;20851;-81
2021/10/01 01:04:42;;;;;;;6.18;1.42;;;12.20;99.90;;;;;;4841174;29;20026;-82
2021/10/01 01:07:17;;;;;;;5.45;1.58;;;12.10;99.90;;;;;;4840666;29;20034;-82
2021/10/01 01:09:51;;;;;;;5.20;1.42;;;12.10;99.90;;;;;;4840580;29;20026;-82
2021/10/01 01:12:17;;;;;;;3.45;1.13;;;12.10;99.90;;;;;;4836683;29;20102;-82
2021/10/01 01:14:50;;;;;;;7.40;1.30;;;12.20;99.90;;;;;;4840156;29;20050;-81
2021/10/01 01:17:55;;;;;;;6.95;1.75;;;12.10;99.90;;;;;;4840393;29;20122;-82
2021/10/01 01:20:33;;;;;;;5.22;1.23;;;12.10;99.90;;;;;;4840023;29;20038;-82
2021/10/01 01:23:27;;;;;;;5.03;1.23;;;12.10;99.90;;;;;;4835116;29;20057;-82
2021/10/01 01:26:10;;;;;;;8.68;1.77;;;12.10;99.90;;;;;;4840069;29;20022;-82
2021/10/01 01:29:13;;;;;;;9.20;1.50;;;12.20;99.90;;;;;;4834320;29;20030;-82
2021/10/01 01:31:44;;;;;;;4.97;1.20;;;12.20;99.90;;;;;;4839382;29;20033;-82
2021/10/01 01:34:23;;;;;;;8.00;1.83;;;12.20;99.90;;;;;;4840175;29;20150;-82
2021/10/01 01:36:54;;;;;;;5.13;1.23;;;12.20;99.90;;;;;;4839842;29;20081;-82
2021/10/01 01:39:20;;;;;;;7.20;1.10;;;12.10;99.90;;;;;;4839884;29;20026;-82
2021/10/01 01:41:47;;;;;;;6.25;1.35;;;12.10;99.90;;;;;;4839706;29;20040;-81
2021/10/01 01:44:13;;;;;;;6.78;1.70;;;12.10;99.90;;;;;;4834322;29;20083;-82
2021/10/01 01:46:41;;;;;;;6.05;1.30;;;12.10;99.90;;;;;;4835219;29;20030;-82
2021/10/01 01:49:08;;;;;;;4.35;1.27;;;12.00;99.90;;;;;;4834705;29;20017;-82
2021/10/01 01:51:35;;;;;;;9.35;1.40;;;12.10;99.90;;;;;;4839657;29;20082;-82
2021/10/01 01:54:01;;;;;;;6.10;1.30;;;12.00;99.90;;;;;;4839079;29;20018;-82
2021/10/01 01:56:33;;;;;;;4.75;1.00;;;12.00;99.90;;;;;;4824052;29;20034;-83
2021/10/01 01:59:01;;;;;;;4.95;1.75;;;12.00;99.90;;;;;;4840031;29;20513;-82
2021/10/01 02:01:31;;;;;;;6.25;1.27;;;12.00;99.90;;;;;;4834245;29;20022;-83
2021/10/01 02:03:58;;;;;;;5.25;1.08;;;12.00;99.90;;;;;;4837402;29;20098;-82
2021/10/01 02:06:24;;;;;;;5.50;1.40;;;12.10;99.90;;;;;;4839626;29;20034;-82
2021/10/01 02:08:51;;;;;;;7.05;1.20;;;12.00;99.90;;;;;;4836047;29;20030;-82
2021/10/01 02:11:18;;;;;;;3.78;1.10;;;12.00;99.90;;;;;;4834341;29;20025;-82
2021/10/01 02:13:46;;;;;;;5.10;1.17;;;12.00;99.90;;;;;;4839775;29;20026;-82
2021/10/01 02:16:13;;;;;;;8.48;1.27;;;12.00;99.90;;;;;;4834023;29;20036;-82
2021/10/01 02:18:41;;;;;;;6.18;1.17;;;12.00;99.90;;;;;;4833985;29;20030;-82
2021/10/01 02:21:08;;;;;;;7.72;1.25;;;12.00;99.90;;;;;;4839487;29;20030;-82
2021/10/01 02:23:35;;;;;;;4.13;1.45;;;12.00;99.90;;;;;;4833796;29;20113;-82
2021/10/01 02:28:59;;;;;;;5.95;1.05;;;12.00;99.90;;;;;;4835523;29;20113;-82
2021/10/01 02:31:37;;;;;;;6.88;1.58;;;12.00;99.90;;;;;;4839071;29;20038;-86
2021/10/01 02:34:06;;;;;;;6.13;1.17;;;12.00;99.90;;;;;;4839346;29;20483;-82
2021/10/01 02:36:31;;;;;;;8.32;1.50;;;12.10;99.90;;;;;;4839070;29;20033;-82
2021/10/01 02:38:57;;;;;;;5.70;1.33;;;12.10;99.90;;;;;;4839153;29;20038;-82
2021/10/01 02:41:23;;;;;;;7.28;1.88;;;12.10;99.90;;;;;;4839363;29;20033;-82
2021/10/01 02:43:48;;;;;;;8.70;1.50;;;12.20;99.90;;;;;;4839302;29;20030;-81
2021/10/01 02:46:14;;;;;;;9.68;1.70;;;12.30;99.90;;;;;;4834380;29;20523;-81
2021/10/01 02:48:40;;;;;;;8.27;1.98;;;12.30;99.90;;;;;;4839135;29;20483;-82
2021/10/01 02:51:18;;;;;;;7.03;2.20;;;12.30;99.90;;;;;;4839228;29;20026;-82
2021/10/01 02:54:12;;;;;;;9.75;1.90;;;12.30;99.90;;;;;;4822779;29;20044;-82
2021/10/01 02:56:46;;;;;;;7.97;1.58;;;12.30;99.90;;;;;;4838879;29;20082;-82
2021/10/01 02:59:16;;;;;;;7.05;1.70;;;12.30;99.90;;;;;;4836115;29;20114;-82
2021/10/01 03:01:45;;;;;;;10.90;1.92;;;12.30;99.90;;;;;;4839321;29;20038;-85
2021/10/01 03:04:12;;;;;;;11.80;2.33;;;12.30;99.90;;;;;;4839220;29;20099;-82
2021/10/01 03:06:43;;;;;;;7.97;2.28;;;12.30;99.90;;;;;;4839970;29;20045;-82
2021/10/01 03:09:10;;;;;;;8.10;1.88;;;12.30;99.90;;;;;;4823416;29;20121;-82
2021/10/01 03:11:36;;;;;;;8.75;2.60;;;12.30;99.90;;;;;;4836816;29;20034;-82
2021/10/01 03:14:03;;;;;;;11.73;2.75;;;12.30;99.90;;;;;;4839178;29;20083;-82
2021/10/01 03:16:32;;;;;;;10.85;2.72;;;12.30;99.90;;;;;;4841150;29;20038;-82
2021/10/01 03:18:58;;;;;;;6.35;2.13;;;12.20;99.90;;;;;;4842224;29;20118;-82
2021/10/01 03:21:25;;;;;;;9.57;2.28;;;12.30;99.90;;;;;;4842260;29;20037;-82
2021/10/01 03:23:52;;;;;;;9.02;2.28;;;12.20;99.90;;;;;;4842238;29;20041;-82
2021/10/01 03:26:19;;;;;;;10.60;2.25;;;12.30;99.90;;;;;;4842529;29;20441;-82
2021/10/01 03:28:45;;;;;;;9.65;2.60;;;12.20;99.90;;;;;;4842753;29;20070;-82
2021/10/01 03:31:12;;;;;;;11.60;2.17;;;12.20;99.90;;;;;;4826980;29;20038;-82
2021/10/01 03:33:38;;;;;;;10.55;2.78;;;12.20;99.90;;;;;;4842212;29;20072;-81
2021/10/01 03:36:06;;;;;;;8.05;1.90;;;12.20;99.90;;;;;;4838467;29;20029;-81
2021/10/01 03:38:32;;;;;;;7.82;2.15;;;12.20;99.90;;;;;;4842056;29;20454;-81
2021/10/01 03:40:59;;;;;;;7.85;2.13;;;12.20;99.90;;;;;;4825080;29;20030;-82
2021/10/01 03:43:26;;;;;;;13.52;2.10;;;12.20;99.90;;;;;;4837052;29;20030;-82
2021/10/01 03:45:53;;;;;;;7.07;2.08;;;12.30;99.90;;;;;;4842302;29;20068;-82
2021/10/01 03:48:19;;;;;;;8.30;2.25;;;12.30;99.90;;;;;;4842106;29;20041;-82
2021/10/01 03:50:44;;;;;;;11.05;2.03;;;12.30;99.90;;;;;;4840624;29;20098;-82
2021/10/01 03:53:10;;;;;;;6.68;1.92;;;12.30;99.90;;;;;;4835488;29;20121;-82
2021/10/01 03:55:36;;;;;;;11.05;2.10;;;12.30;99.90;;;;;;4841765;29;20026;-82
2021/10/01 03:58:01;;;;;;;7.43;1.83;;;12.30;99.90;;;;;;4823738;29;20042;-82
2021/10/01 04:00:28;;;;;;;14.07;1.88;;;12.30;99.90;;;;;;4842459;29;20026;-82
2021/10/01 04:02:54;;;;;;;7.80;2.03;;;12.40;99.90;;;;;;4841900;29;20040;-81
2021/10/01 04:05:20;;;;;;;6.68;1.80;;;12.30;99.90;;;;;;4841860;29;20037;-81
2021/10/01 04:07:46;;;;;;;8.90;2.13;;;12.30;99.90;;;;;;4842162;29;20026;-82
2021/10/01 04:10:13;;;;;;;7.68;2.55;;;12.40;99.90;;;;;;4835892;29;20040;-82
2021/10/01 04:12:39;;;;;;;6.00;1.88;;;12.40;99.90;;;;;;4840361;29;20030;-82
2021/10/01 04:15:06;;;;;;;8.30;1.70;;;12.50;99.90;;;;;;4841421;29;20057;-82
2021/10/01 04:17:32;;;;;;;5.05;1.83;;;12.50;99.90;;;;;;4824315;29;20026;-82
2021/10/01 04:19:58;;;;;;;8.15;1.33;;;12.50;99.90;;;;;;4841359;29;20395;-82
2021/10/01 04:22:25;;;;;;;8.95;1.60;;;12.40;99.90;;;;;;4841356;29;20033;-82
2021/10/01 04:24:50;;;;;;;7.38;1.80;;;12.40;99.90;;;;;;4841041;29;20033;-82
2021/10/01 04:27:16;;;;;;;7.13;1.77;;;12.40;99.90;;;;;;4841254;29;20062;-84
2021/10/01 04:29:43;;;;;;;8.52;1.60;;;12.40;99.90;;;;;;4840774;29;20026;-82
2021/10/01 04:32:10;;;;;;;4.55;1.60;;;12.50;99.90;;;;;;4841029;29;20037;-82
2021/10/01 04:37:20;;;;;;;12.05;1.65;;;12.40;99.90;;;;;;4835851;29;20028;-82
2021/10/01 04:39:46;;;;;;;7.95;1.73;;;12.40;99.90;;;;;;4840875;29;20113;-82
2021/10/01 04:42:12;;;;;;;6.75;1.73;;;12.40;99.90;;;;;;4853931;29;20029;-81
2021/10/01 04:44:38;;;;;;;13.27;1.88;;;12.30;99.90;;;;;;4864810;29;20026;-83
2021/10/01 04:47:04;;;;;;;9.35;1.63;;;12.40;99.90;;;;;;4860988;29;20033;-83
2021/10/01 04:49:30;;;;;;;12.57;1.55;;;12.40;99.90;;;;;;4863904;29;20030;-82
2021/10/01 04:51:55;;;;;;;8.68;1.60;;;12.40;99.90;;;;;;4858806;29;20053;-83
2021/10/01 04:54:21;;;;;;;7.57;2.10;;;12.30;99.90;;;;;;4851067;29;20034;-82
2021/10/01 04:56:47;;;;;;;7.65;1.88;;;12.30;99.90;;;;;;4848327;29;20034;-82
2021/10/01 04:59:13;;;;;;;10.50;1.48;;;12.30;99.90;;;;;;4840689;29;20044;-82
2021/10/01 05:01:39;;;;;;;7.32;1.40;;;12.40;99.90;;;;;;4840518;29;20508;-82
2021/10/01 05:04:04;;;;;;;6.65;1.55;;;12.40;99.90;;;;;;4840250;29;20032;-82
2021/10/01 05:06:30;;;;;;;9.05;2.08;;;12.30;99.90;;;;;;4823972;29;20030;-82
2021/10/01 05:08:56;;;;;;;8.85;1.42;;;12.20;99.90;;;;;;4840286;29;20030;-83
2021/10/01 05:11:21;;;;;;;6.60;1.25;;;12.30;99.90;;;;;;4840646;29;20034;-82
2021/10/01 05:13:47;;;;;;;6.70;1.55;;;12.40;99.90;;;;;;4838265;29;20100;-82
2021/10/01 05:16:13;;;;;;;7.65;1.75;;;12.40;99.90;;;;;;4824353;29;20030;-82
2021/10/01 05:18:38;;;;;;;6.38;1.40;;;12.40;99.90;;;;;;4840574;29;20050;-83
2021/10/01 05:21:04;;;;;;;7.25;1.98;;;12.40;99.90;;;;;;4840228;29;20026;-82
2021/10/01 05:23:31;;;;;;;6.85;1.20;;;12.30;99.90;;;;;;4840343;29;20114;-82
2021/10/01 05:25:58;;;;;;;6.05;1.40;;;12.30;99.90;;;;;;4840416;29;20026;-83
2021/10/01 05:28:24;;;;;;;5.95;1.30;;;12.30;99.90;;;;;;4840351;29;20037;-82
2021/10/01 05:30:50;;;;;;;10.98;1.75;;;12.30;99.90;;;;;;4839841;29;20105;-81
2021/10/01 05:33:15;;;;;;;8.55;1.80;;;12.20;99.90;;;;;;4840304;29;20890;-82
2021/10/01 05:35:44;;;;;;;6.80;1.45;;;12.30;99.90;;;;;;4840540;29;20046;-83
2021/10/01 05:38:10;;;;;;;8.50;1.75;;;12.20;99.90;;;;;;4840101;29;20105;-82
2021/10/01 05:40:36;;;;;;;9.80;1.73;;;12.30;99.90;;;;;;4841728;29;20109;-82
2021/10/01 05:43:02;;;;;;;7.35;1.58;;;12.30;99.90;;;;;;4841945;29;20040;-82
2021/10/01 05:45:28;;;;;;;9.77;1.65;;;12.30;99.90;;;;;;4839253;29;20441;-83
2021/10/01 05:47:54;;;;;;;10.45;1.75;;;12.30;99.90;;;;;;4839681;29;20104;-82
2021/10/01 05:50:22;;;;;;;9.35;1.83;;;12.30;99.90;;;;;;4838945;29;20508;-83
2021/10/01 05:55:13;;;;;;;5.53;1.50;;;12.20;99.90;;;;;;4840329;29;20116;-85
2021/10/01 05:57:39;;;;;;;7.35;1.50;;;12.20;99.90;;;;;;4838020;29;20022;-82
2021/10/01 06:00:06;;;;;;;5.32;1.42;;;12.20;99.90;;;;;;4850922;29;20030;-83
2021/10/01 06:02:33;;;;;;;6.80;1.60;;;12.20;99.90;;;;;;4850916;29;20025;-82
2021/10/01 06:04:59;;;;;;;8.27;1.55;;;12.20;99.90;;;;;;4851526;29;20025;-82
2021/10/01 06:07:25;;;;;;;6.38;1.58;;;12.30;99.90;;;;;;4850019;29;20432;-82
2021/10/01 06:09:50;;;;;;;7.38;1.63;;;12.40;99.90;;;;;;4850813;29;20085;-82
2021/10/01 06:12:17;;;;;;;13.23;2.22;;;12.40;99.90;;;;;;4850646;29;20034;-82
2021/10/01 06:14:43;;;;;;;7.72;2.00;;;12.40;99.90;;;;;;4847733;29;20038;-82
2021/10/01 06:17:10;;;;;;;7.88;2.38;;;12.40;99.90;;;;;;4849898;29;20066;-82
2021/10/01 06:19:38;;;;;;;7.32;1.85;;;12.50;99.90;;;;;;4849137;29;20021;-82
2021/10/01 06:22:06;;;;;;;8.20;2.50;;;12.50;99.90;;;;;;4851234;29;20025;-81
2021/10/01 06:24:32;;;;;;;6.28;2.15;;;12.50;99.90;;;;;;4851108;29;20026;-82
2021/10/01 06:26:58;;;;;;;10.48;1.95;;;12.60;99.90;;;;;;4851528;29;20026;-83
2021/10/01 06:29:24;;;;;;;9.70;3.35;;;12.60;99.90;;;;;;4851431;29;20313;-83
2021/10/01 06:31:50;;;;;;;7.53;2.15;;;12.70;99.90;;;;;;4845118;29;20468;-82
2021/10/01 06:34:16;;;;;;;8.13;2.38;;;12.70;99.90;;;;;;4839287;29;20033;-82
2021/10/01 06:36:42;;;;;;;8.02;2.88;;;12.80;99.90;;;;;;4841725;29;20259;-82
2021/10/01 06:39:08;;;;;;;8.68;2.10;;;12.80;99.90;;;;;;4837507;29;20019;-82
2021/10/01 06:41:35;;;;;;;5.70;1.80;;;12.80;99.90;;;;;;4830518;29;20037;-82
2021/10/01 06:44:04;;;;;;;7.70;3.20;;;12.90;99.90;;;;;;4841812;29;20648;-83
2021/10/01 07:23:23;;;;;;;5.82;1.77;;;13.70;99.90;;;;;;4840026;29;20076;-72
2021/10/01 08:19:45;;;;;;;8.48;1.50;;;14.80;99.90;;;;;;4838901;29;20045;-84
2021/10/01 08:22:13;;;;;;;7.28;1.77;;;14.90;99.90;;;;;;4841067;29;20034;-85
2021/10/01 08:24:39;;;;;;;11.65;1.40;;;15.00;99.90;;;;;;4842161;29;20030;-85
2021/10/01 08:27:06;;;;;;;8.85;1.67;;;15.10;99.90;;;;;;4836292;29;20022;-84
2021/10/01 08:29:33;;;;;;;8.23;2.75;;;15.30;99.90;;;;;;4842015;29;20074;-85
2021/10/01 08:32:03;;;;;;;7.43;1.33;;;15.50;99.90;;;;;;4836829;29;20034;-85
2021/10/01 08:34:31;;;;;;;10.30;1.75;;;15.70;99.90;;;;;;4841569;29;20060;-85
2021/10/01 08:36:58;;;;;;;7.32;1.42;;;15.90;99.90;;;;;;4841260;29;20484;-85
2021/10/01 08:39:26;;;;;;;6.38;1.60;;;16.00;99.90;;;;;;4839946;29;20395;-85
2021/10/01 08:41:52;;;;;;;8.18;1.02;;;16.00;99.90;;;;;;4844409;29;20194;-85
2021/10/01 08:44:19;;;;;;;6.65;1.45;;;16.00;99.90;;;;;;4826436;29;20183;-85
2021/10/01 08:46:47;;;;;;;5.45;1.20;;;16.10;99.90;;;;;;4837916;29;20030;-85
2021/10/01 08:49:13;;;;;;;7.80;1.10;;;16.00;99.90;;;;;;4844660;29;20030;-85
2021/10/01 08:51:39;;;;;;;8.07;1.70;;;16.10;99.90;;;;;;4836509;29;20030;-85
2021/10/01 08:54:05;;;;;;;5.80;1.10;;;16.10;99.90;;;;;;4842518;29;20062;-85
2021/10/01 08:56:32;;;;;;;7.22;1.30;;;16.10;99.90;;;;;;4835334;29;20480;-85
2021/10/01 08:58:58;;;;;;;7.80;1.63;;;16.10;99.90;;;;;;4840949;29;20030;-84
2021/10/01 09:01:24;;;;;;;7.20;1.77;;;16.20;99.90;;;;;;4841470;29;20400;-84
2021/10/01 09:03:50;;;;;;;4.18;1.40;;;16.40;99.90;;;;;;4840765;29;20053;-85
2021/10/01 09:06:16;;;;;;;6.80;1.23;;;16.40;99.90;;;;;;4841035;29;20022;-85
2021/10/01 09:09:09;;;;;;;9.48;1.63;;;16.50;99.90;;;;;;4842632;29;20045;-84
2021/10/01 09:11:49;;;;;;;12.73;2.03;;;16.60;99.90;;;;;;4834972;29;20453;-85
2021/10/01 09:14:21;;;;;;;12.85;4.82;;;16.60;99.90;;;;;;4835088;29;20070;-84
2021/10/01 09:16:55;;;;;;;11.23;4.40;;;16.60;99.90;;;;;;4825471;29;20030;-84
2021/10/01 09:19:21;;;;;;;;;;;16.70;99.90;;;;;;4839000;29;20467;-84
2021/10/01 09:21:49;;;;;;;14.85;7.00;;;16.70;99.90;;;;;;4841664;29;19908;-85
2021/10/01 09:24:18;;;;;;;33.05;18.73;;;16.70;99.90;;;;;;4840645;29;20026;-85
2021/10/01 09:26:48;;;;;;;6.97;1.73;;;16.70;99.90;;;;;;4834175;29;20021;-85
2021/10/01 09:29:24;;;;;;;5.68;1.20;;;16.90;99.90;;;;;;4841528;29;20033;-85
2021/10/01 09:31:50;;;;;;;9.23;1.75;;;17.00;99.90;;;;;;4841021;29;20399;-85
2021/10/01 09:34:32;;;;;;;7.43;1.45;;;17.30;99.90;;;;;;4841531;29;20037;-85
2021/10/01 09:37:19;;;;;;;7.80;1.55;;;17.40;99.90;;;;;;4843552;29;20658;-85
2021/10/01 09:39:50;;;;;;;6.45;1.45;;;17.60;99.90;;;;;;4840687;29;20037;-85
2021/10/01 09:42:17;;;;;;;10.05;1.70;;;17.70;99.90;;;;;;4821342;29;20443;-85
2021/10/01 09:44:47;;;;;;;7.18;1.50;;;18.00;99.90;;;;;;4838661;29;20062;-85
2021/10/01 09:47:14;;;;;;;7.03;1.80;;;18.30;99.90;;;;;;4839536;29;20483;-85
2021/10/01 09:49:40;;;;;;;7.00;1.25;;;18.30;99.90;;;;;;4839321;29;20558;-85
2021/10/01 09:52:06;;;;;;;8.23;1.67;;;18.20;99.90;;;;;;4839333;29;20495;-84
2021/10/01 09:54:32;;;;;;;8.18;1.80;;;18.00;99.90;;;;;;4839639;29;20109;-85
2021/10/01 09:57:06;;;;;;;11.20;2.28;;;18.00;99.90;;;;;;4839340;29;20113;-85
2021/10/01 09:59:34;;;;;;;6.72;1.33;;;18.00;99.90;;;;;;4839623;29;20058;-84
2021/10/01 10:02:15;;;;;;;6.00;1.33;;;18.00;99.90;;;;;;4839460;29;20049;-84
2021/10/01 10:04:44;;;;;;;9.57;1.92;;;17.90;99.90;;;;;;4839122;29;20180;-84
2021/10/01 10:07:22;;;;;;;5.45;1.35;;;17.60;99.90;;;;;;4839203;29;20040;-84
2021/10/01 10:09:51;;;;;;;10.05;2.08;;;17.70;99.90;;;;;;4839330;29;20373;-84
2021/10/01 10:12:34;;;;;;;12.30;1.80;;;17.70;99.90;;;;;;4833023;29;20466;-84
2021/10/01 10:15:02;;;;;;;9.02;2.20;;;17.70;99.90;;;;;;4838984;29;20050;-83
2021/10/01 10:17:29;;;;;;;8.85;1.70;;;17.80;99.90;;;;;;4838980;29;20137;-83
2021/10/01 10:19:57;;;;;;;8.75;1.50;;;17.90;99.90;;;;;;4838939;29;20026;-83
2021/10/01 10:22:25;;;;;;;6.55;1.80;;;18.00;99.90;;;;;;4839112;29;20022;-83
2021/10/01 10:24:51;;;;;;;5.63;1.88;;;17.90;99.90;;;;;;4838914;29;20033;-84
2021/10/01 10:27:17;;;;;;;6.03;1.50;;;18.00;99.90;;;;;;4839274;29;20392;-83
2021/10/01 10:29:45;;;;;;;7.03;1.70;;;18.00;99.90;;;;;;4837858;29;20022;-83
2021/10/01 10:32:14;;;;;;;13.30;2.63;;;18.10;99.90;;;;;;4838969;29;20049;-83
2021/10/01 10:34:50;;;;;;;7.93;1.67;;;18.10;99.90;;;;;;4838821;29;20197;-83
2021/10/01 10:37:17;;;;;;;5.75;1.48;;;18.30;99.90;;;;;;4839322;29;20034;-84
2021/10/01 10:39:51;;;;;;;9.63;2.50;;;18.50;99.90;;;;;;4838912;29;20030;-84
2021/10/01 10:42:28;;;;;;;10.75;1.50;;;18.50;99.90;;;;;;4838965;29;20037;-85
2021/10/01 10:45:03;;;;;;;8.98;1.80;;;18.40;99.90;;;;;;4838970;29;20026;-85
2021/10/01 10:47:52;;;;;;;6.45;1.92;;;18.30;99.90;;;;;;4839238;29;20030;-87
2021/10/01 10:50:26;;;;;;;15.07;3.00;;;18.20;99.90;;;;;;4838516;29;20437;-85
2021/10/01 10:53:05;;;;;;;9.85;2.45;;;18.00;99.90;;;;;;4819738;29;20394;-86
2021/10/01 10:55:36;;;;;;;7.38;1.40;;;18.10;99.90;;;;;;4835807;29;20082;-86
2021/10/01 10:58:26;;;;;;;8.90;1.65;;;18.00;99.90;;;;;;4838832;29;20034;-86
2021/10/01 11:01:00;;;;;;;8.63;1.83;;;18.40;99.90;;;;;;4815685;29;20049;-86
2021/10/01 11:03:33;;;;;;;7.78;2.38;;;18.80;99.90;;;;;;4838778;29;20030;-85
2021/10/01 11:06:13;;;;;;;4.97;1.70;;;19.20;99.90;;;;;;4838315;29;20026;-85
2021/10/01 11:08:45;;;;;;;6.78;1.33;;;19.40;99.90;;;;;;4832517;29;20090;-86
2021/10/01 11:11:34;;;;;;;7.15;0.98;;;19.60;99.90;;;;;;4838992;29;20457;-85
2021/10/01 11:14:19;;;;;;;4.07;1.15;;;19.70;99.90;;;;;;4816208;29;20098;-85
2021/10/01 11:17:09;;;;;;;7.30;1.63;;;19.70;99.90;;;;;;4822450;29;20030;-85
2021/10/01 11:19:44;;;;;;;6.78;1.00;;;19.60;99.90;;;;;;4836158;29;20026;-86
2021/10/01 11:22:29;;;;;;;5.20;1.00;;;19.40;99.90;;;;;;4833222;29;20045;-85
2021/10/01 11:25:16;;;;;;;;;;;19.40;99.90;;;;;;4839041;29;20020;-85
2021/10/01 11:27:46;;;;;;;4.25;0.90;;;19.50;99.90;;;;;;4839638;29;19915;-86
2021/10/01 11:30:12;;;;;;;8.13;1.17;;;19.50;99.90;;;;;;4840798;29;20030;-85
2021/10/01 11:32:37;;;;;;;11.35;1.20;;;19.60;99.90;;;;;;4841914;29;20403;-85
2021/10/01 11:35:03;;;;;;;3.67;0.80;;;19.80;99.90;;;;;;4841719;29;20026;-85
2021/10/01 11:37:33;;;;;;;7.65;1.40;;;19.60;99.90;;;;;;4842027;29;20388;-86
2021/10/01 11:40:16;;;;;;;4.50;1.33;;;19.30;99.90;;;;;;4841937;29;20050;-86
2021/10/01 11:42:45;;;;;;;9.65;1.30;;;19.20;99.90;;;;;;4841769;29;20041;-85
2021/10/01 11:45:34;;;;;;;7.03;1.63;;;19.20;99.90;;;;;;4841695;29;20034;-86
2021/10/01 11:48:02;;;;;;;13.02;1.50;;;19.20;99.90;;;;;;4842010;29;20517;-85
2021/10/01 11:50:46;;;;;;;7.57;1.38;;;18.90;99.90;;;;;;4841709;29;20018;-86
2021/10/01 11:53:24;;;;;;;15.18;1.67;;;18.60;99.90;;;;;;4841659;29;20042;-84
2021/10/01 11:55:52;;;;;;;9.70;1.52;;;18.30;99.90;;;;;;4842031;29;20205;-83
2021/10/01 11:58:23;;;;;;;10.88;1.42;;;17.90;99.90;;;;;;4850903;29;20022;-83
2021/10/01 12:00:52;;;;;;;10.48;1.58;;;17.50;99.90;;;;;;4851140;29;20046;-83
2021/10/01 12:03:19;;;;;;;7.50;1.92;;;17.30;99.90;;;;;;4852416;29;20218;-83
2021/10/01 12:05:50;;;;;;;10.68;1.73;;;17.10;99.90;;;;;;4842810;29;20018;-84
2021/10/01 12:08:22;;;;;;;8.38;1.85;;;17.10;99.90;;;;;;4846541;29;20077;-85
2021/10/01 12:10:54;;;;;;;9.05;1.98;;;17.00;99.90;;;;;;4846726;29;20010;-86
2021/10/01 12:13:25;;;;;;;7.35;1.30;;;16.90;99.90;;;;;;4841351;29;20045;-88
2021/10/01 12:15:53;;;;;;;13.02;2.22;;;17.00;99.90;;;;;;4839611;29;20077;-89
2021/10/01 12:18:35;;;;;;;10.65;1.80;;;17.00;99.90;;;;;;4847738;29;20053;-75
2021/10/01 12:21:15;;;;;;;11.68;1.50;;;17.20;99.90;;;;;;4851694;29;20101;-75
2021/10/01 12:23:47;;;;;;;10.57;2.35;;;17.40;99.90;;;;;;4851089;29;20030;-74
2021/10/01 12:26:26;;;;;;;7.85;0.98;;;17.70;99.90;;;;;;4847734;29;20018;-75
2021/10/01 12:29:04;;;;;;;11.88;1.83;;;18.00;99.90;;;;;;4851392;29;20085;-74
2021/10/01 12:31:36;;;;;;;8.48;1.40;;;18.20;99.90;;;;;;4847972;29;20341;-75
2021/10/01 12:34:04;;;;;;;8.98;1.55;;;18.30;99.90;;;;;;4834134;29;20238;-74
2021/10/01 12:36:30;;;;;;;8.50;1.20;;;18.20;99.90;;;;;;4850809;29;20030;-74
2021/10/01 12:38:57;;;;;;;9.15;1.63;;;18.30;99.90;;;;;;4847585;29;20033;-75
2021/10/01 12:41:24;;;;;;;6.57;1.33;;;18.30;99.90;;;;;;4850123;29;20053;-74
2021/10/01 12:43:53;;;;;;;9.07;1.27;;;18.30;99.90;;;;;;4851474;29;20369;-74
2021/10/01 12:46:39;;;;;;;6.90;1.25;;;18.20;99.90;;;;;;4851701;29;20229;-74
2021/10/01 12:49:12;;;;;;;12.55;1.45;;;18.10;99.90;;;;;;4849104;29;20018;-74
2021/10/01 12:51:38;;;;;;;8.77;1.27;;;17.80;99.90;;;;;;4851341;29;20018;-74
2021/10/01 12:54:23;;;;;;;9.80;1.20;;;18.00;99.90;;;;;;4851450;29;20147;-74
2021/10/01 12:57:08;;;;;;;6.40;1.13;;;18.00;99.90;;;;;;4840359;29;20022;-74
2021/10/01 12:59:41;;;;;;;5.03;1.13;;;18.10;99.90;;;;;;4838806;29;20028;-74
2021/10/01 13:02:34;;;;;;;6.53;0.93;;;18.10;99.90;;;;;;4843034;29;20038;-74
2021/10/01 13:05:03;;;;;;;5.55;0.93;;;18.00;99.90;;;;;;4810120;29;20038;-74
2021/10/01 13:07:33;;;;;;;5.47;0.93;;;18.00;99.90;;;;;;4850465;29;20037;-75
2021/10/01 13:10:03;;;;;;;9.60;1.20;;;18.00;99.90;;;;;;4851335;29;20032;-74
2021/10/01 13:12:37;;;;;;;11.55;1.80;;;17.90;99.90;;;;;;4849471;29;20060;-75
2021/10/01 13:15:07;;;;;;;;;;;17.80;99.90;;;;;;4845520;29;20249;-73
2021/10/01 13:17:33;;;;;;;12.73;1.42;;;17.90;99.90;;;;;;4842661;29;19909;-72
2021/10/01 13:19:59;;;;;;;8.10;1.40;;;18.00;99.90;;;;;;4841461;29;20656;-73
2021/10/01 13:22:25;;;;;;;10.48;1.08;;;18.10;99.90;;;;;;4843117;29;20511;-73
2021/10/01 13:24:57;;;;;;;8.98;1.38;;;18.10;99.90;;;;;;4841486;29;20086;-74
2021/10/01 13:27:22;;;;;;;12.73;1.27;;;18.30;99.90;;;;;;4839962;29;20034;-74
2021/10/01 13:29:48;;;;;;;8.80;1.30;;;18.50;99.90;;;;;;4841684;29;20188;-74
2021/10/01 13:32:14;;;;;;;6.38;1.42;;;18.70;99.90;;;;;;4841583;29;20045;-74
2021/10/01 13:34:39;;;;;;;5.88;1.27;;;18.80;99.90;;;;;;4820883;29;20046;-74
2021/10/01 13:37:05;;;;;;;5.93;1.13;;;18.90;99.90;;;;;;4836676;29;20041;-74
2021/10/01 13:39:31;;;;;;;8.43;1.85;;;19.00;99.90;;;;;;4838787;29;20117;-73
2021/10/01 13:41:56;;;;;;;8.32;1.35;;;19.00;99.90;;;;;;4840141;29;20392;-74
2021/10/01 13:44:22;;;;;;;6.63;1.85;;;18.90;99.90;;;;;;4844509;29;20030;-88
2021/10/01 13:46:48;;;;;;;10.93;1.45;;;19.00;99.90;;;;;;4833784;29;20325;-94
2021/10/01 13:49:14;;;;;;;6.53;1.17;;;19.00;99.90;;;;;;4833243;29;20014;-89
2021/10/01 13:51:39;;;;;;;8.18;1.50;;;19.00;99.90;;;;;;4836644;29;20033;-90
2021/10/01 13:54:06;;;;;;;6.88;1.50;;;18.80;99.90;;;;;;4840301;29;20468;-91
2021/10/01 13:56:32;;;;;;;8.43;1.90;;;18.50;99.90;;;;;;4831949;29;20109;-91
2021/10/01 13:58:58;;;;;;;6.80;1.20;;;18.30;99.90;;;;;;4834538;29;20149;-91
2021/10/01 14:01:23;;;;;;;5.45;1.20;;;18.10;99.90;;;;;;4833803;29;20070;-92
2021/10/01 14:03:49;;;;;;;8.07;1.55;;;17.80;99.90;;;;;;4830426;29;20037;-92
2021/10/01 14:06:15;;;;;;;3.72;0.93;;;17.80;99.90;;;;;;4827596;29;20026;-93
2021/10/01 14:08:41;;;;;;;6.68;0.98;;;17.60;99.90;;;;;;4826778;29;20500;-93
2021/10/01 14:11:07;;;;;;;10.55;1.25;;;17.50;99.90;;;;;;4824951;29;20026;-90
2021/10/01 14:13:32;;;;;;;5.20;1.45;;;17.40;99.90;;;;;;4833000;29;20505;-87
2021/10/01 14:15:58;;;;;;;6.60;1.27;;;17.30;99.90;;;;;;4833091;29;20042;-85
2021/10/01 14:18:25;;;;;;;6.05;1.20;;;17.20;99.90;;;;;;4832452;29;20488;-85
2021/10/01 14:20:52;;;;;;;7.97;1.48;;;17.10;99.90;;;;;;4829845;29;20113;-86
2021/10/01 14:23:17;;;;;;;7.85;1.35;;;17.00;99.90;;;;;;4832680;29;20026;-85
2021/10/01 14:25:43;;;;;;;5.00;1.00;;;17.00;99.90;;;;;;4839038;29;20026;-85
2021/10/01 14:28:09;;;;;;;8.85;1.23;;;17.00;99.90;;;;;;4839140;29;20085;-85
2021/10/01 14:30:38;;;;;;;7.68;1.50;;;17.00;99.90;;;;;;4839144;29;20067;-84
2021/10/01 14:33:05;;;;;;;14.45;1.50;;;16.90;99.90;;;;;;4838591;29;20536;-85
2021/10/01 14:35:31;;;;;;;10.32;1.67;;;16.90;99.90;;;;;;4838973;29;20496;-85